.
WxDataArchive / Data Records for 2006-04-05
2006-04-04 April 2006 2006-04-06

Data Records for Wednesday, 05 April 2006

Time	Temp	Chill	HIndex	Humid	Dewpt	 Wind 	HiWind	WindDir	Rain 	Barom 
-----	----	-----	------	-----	-----	------	------	-------	-----	----- 
00:00	39.8	39.8	39.8	57	25.8	1	5	248	0.00	29.880 
00:05	39.9	39.9	39.9	57	25.9	1	5	248	0.00	29.880 
00:10	40.1	40.1	40.1	56	25.7	1	2	248	0.00	29.880 
00:15	40.3	40.3	40.3	55	25.4	1	3	248	0.00	29.878 
00:20	40.5	40.5	40.5	55	25.6	2	3	248	0.00	29.878 
00:25	40.5	40.5	40.5	55	25.6	1	3	248	0.00	29.878 
00:30	40.5	40.5	40.5	55	25.6	2	3	270	0.00	29.879 
00:35	40.3	40.3	40.3	55	25.4	1	3	270	0.00	29.879 
00:40	40.3	40.3	40.3	55	25.4	1	3	248	0.00	29.879 
00:45	40.2	40.2	40.2	55	25.3	1	3	248	0.00	29.884 
00:50	40.2	40.2	40.2	55	25.3	1	2	248	0.00	29.884 
00:55	40.2	40.2	40.2	55	25.3	2	3	248	0.00	29.884 
01:00	40.3	40.3	40.3	55	25.4	2	4	270	0.00	29.887 
01:05	40.3	40.3	40.3	55	25.4	2	4	248	0.00	29.887 
01:10	40.3	40.3	40.3	55	25.4	1	3	270	0.00	29.887 
01:15	40.5	40.5	40.5	54	25.2	2	4	270	0.00	29.894 
01:20	40.5	40.5	40.5	55	25.6	1	2	292	0.00	29.894 
01:25	40.6	40.6	40.6	54	25.3	1	4	292	0.00	29.894 
01:30	40.8	40.8	40.8	54	25.5	1	4	338	0.00	29.900 
01:35	40.6	40.6	40.6	55	25.7	1	4	292	0.00	29.900 
01:40	40.5	40.5	40.5	55	25.6	1	3	338	0.00	29.900 
01:45	40.3	40.3	40.3	56	25.9	1	3	292	0.00	29.908 
01:50	40.1	40.1	40.1	57	26.1	1	2	270	0.00	29.908 
01:55	39.9	39.9	39.9	57	25.9	1	3	292	0.00	29.908 
02:00	39.8	39.8	39.8	58	26.2	1	4	248	0.00	29.910 
02:05	39.8	39.8	39.8	58	26.2	1	4	248	0.00	29.910 
02:10	39.6	39.6	39.6	58	26.1	1	3	315	0.00	29.910 
02:15	39.6	39.6	39.6	58	26.1	0	2	315	0.00	29.912 
02:20	39.5	39.5	39.5	58	26.0	0	2	315	0.00	29.912 
02:25	39.2	39.2	39.2	59	26.1	0	2	248	0.00	29.912 
02:30	39.2	39.2	39.2	59	26.1	1	3	248	0.00	29.913 
02:35	39.1	39.1	39.1	59	26.0	1	4	270	0.00	29.913 
02:40	38.9	38.9	38.9	60	26.2	1	3	270	0.00	29.913 
02:45	38.8	38.8	38.8	60	26.1	0	4	270	0.00	29.913 
02:50	38.8	38.8	38.8	61	26.5	1	4	292	0.00	29.913 
02:55	38.5	38.5	38.5	61	26.2	1	5	292	0.00	29.913 
03:00	38.5	38.5	38.5	61	26.2	1	3	270	0.00	29.913 
03:05	38.2	38.2	38.2	62	26.3	0	1	315	0.00	29.913 
03:10	38.0	38.0	38.0	62	26.2	0	2	315	0.00	29.913 
03:15	37.8	37.8	37.8	62	26.0	0	1	315	0.00	29.915 
03:20	37.6	37.6	37.6	63	26.2	1	2	315	0.00	29.915 
03:25	37.5	37.5	37.5	63	26.1	0	3	270	0.00	29.915 
03:30	37.6	37.6	37.6	63	26.2	1	4	292	0.00	29.921 
03:35	37.6	37.6	37.6	63	26.2	1	3	248	0.00	29.921 
03:40	37.3	37.3	37.3	64	26.3	0	2	248	0.00	29.921 
03:45	37.0	37.0	37.0	64	26.0	0	1	248	0.00	29.919 
03:50	36.8	36.8	36.8	65	26.2	0	1	248	0.00	29.919 
03:55	36.6	36.6	36.6	65	26.0	0	2	248	0.00	29.919 
04:00	36.5	36.5	36.5	65	25.9	0	1	248	0.00	29.922 
04:05	36.3	36.3	36.3	65	25.7	0	2	248	0.00	29.922 
04:10	36.3	36.3	36.3	65	25.7	0	1	248	0.00	29.922 
04:15	36.2	36.2	36.2	66	26.0	0	1	248	0.00	29.929 
04:20	35.9	35.9	35.9	66	25.7	0	2	248	0.00	29.929 
04:25	35.8	35.8	35.8	66	25.6	0	2	248	0.00	29.929 
04:30	35.8	35.8	35.8	66	25.6	0	4	248	0.00	29.930 
04:35	35.8	35.8	35.8	67	25.9	0	2	225	0.00	29.930 
04:40	35.6	35.6	35.6	67	25.7	0	2	225	0.00	29.930 
04:45	35.6	35.6	35.6	67	25.7	0	1	225	0.00	29.932 
04:50	35.5	35.5	35.5	67	25.6	0	1	225	0.00	29.932 
04:55	35.3	35.3	35.3	68	25.8	1	2	225	0.00	29.932 
05:00	35.3	35.3	35.3	68	25.8	0	1	225	0.00	29.941 
05:05	35.3	35.3	35.3	68	25.8	0	2	225	0.00	29.941 
05:10	35.3	35.3	35.3	68	25.8	0	1	225	0.00	29.941 
05:15	35.3	35.3	35.3	68	25.8	1	4	248	0.00	29.946 
05:20	35.3	35.3	35.3	67	25.5	0	1	248	0.00	29.946 
05:25	35.2	35.2	35.2	68	25.7	0	1	248	0.00	29.946 
05:30	35.0	35.0	35.0	68	25.5	0	1	248	0.00	29.948 
05:35	34.7	34.7	34.7	69	25.6	0	0	---	0.00	29.948 
05:40	34.4	34.4	34.4	69	25.3	0	1	248	0.00	29.948 
05:45	34.4	34.4	34.4	69	25.3	0	1	248	0.00	29.949 
05:50	34.3	34.3	34.3	70	25.5	0	1	248	0.00	29.949 
05:55	34.1	34.1	34.1	70	25.4	0	2	248	0.00	29.949 
06:00	34.0	34.0	34.0	71	25.6	1	2	248	0.00	29.959 
06:05	33.8	33.8	33.8	71	25.4	0	1	248	0.00	29.959 
06:10	33.8	33.8	33.8	72	25.7	0	2	248	0.00	29.959 
06:15	33.7	33.7	33.7	72	25.7	0	1	248	0.00	29.959 
06:20	33.8	33.8	33.8	72	25.7	1	2	248	0.00	29.959 
06:25	33.8	33.8	33.8	72	25.7	1	2	248	0.00	29.959 
06:30	33.8	33.8	33.8	72	25.7	0	1	248	0.00	29.966 
06:35	33.7	33.7	33.7	73	26.0	0	1	248	0.00	29.966 
06:40	33.5	33.5	33.5	73	25.8	0	0	---	0.00	29.966 
06:45	33.4	33.4	33.4	73	25.7	0	0	---	0.00	29.964 
06:50	33.1	33.1	33.1	74	25.7	0	0	---	0.00	29.964 
06:55	33.1	33.1	33.1	74	25.7	0	1	248	0.00	29.964 
07:00	33.2	33.2	33.2	73	25.5	0	1	248	0.00	29.967 
07:05	33.2	33.2	33.2	73	25.5	0	1	248	0.00	29.967 
07:10	33.2	33.2	33.2	73	25.5	0	1	248	0.00	29.967 
07:15	33.1	33.1	33.1	73	25.4	0	2	248	0.00	29.971 
07:20	33.1	33.1	33.1	74	25.7	0	1	248	0.00	29.971 
07:25	32.9	32.9	32.9	74	25.5	0	2	248	0.00	29.971 
07:30	32.9	32.9	32.9	74	25.5	1	3	248	0.00	29.980 
07:35	33.1	33.1	33.1	74	25.7	0	2	248	0.00	29.980 
07:40	33.2	33.2	33.2	74	25.8	0	1	248	0.00	29.980 
07:45	33.5	33.5	33.5	74	26.1	0	1	248	0.00	29.980 
07:50	33.7	33.7	33.7	74	26.3	0	2	248	0.00	29.980 
07:55	34.1	34.1	34.1	73	26.4	1	2	248	0.00	29.980 
08:00	34.6	34.6	34.6	73	26.9	0	2	248	0.00	29.981 
08:05	35.2	35.2	35.2	71	26.8	1	3	248	0.00	29.981 
08:10	35.8	35.8	35.8	70	27.0	2	3	248	0.00	29.981 
08:15	36.3	36.3	36.3	72	28.2	1	4	248	0.00	29.985 
08:20	36.8	36.8	36.8	68	27.2	1	2	248	0.00	29.985 
08:25	37.2	37.2	37.2	67	27.3	1	3	225	0.00	29.985 
08:30	37.8	37.8	37.8	67	27.8	1	3	270	0.00	29.983 
08:35	38.0	38.0	38.0	65	27.3	2	4	248	0.00	29.983 
08:40	38.3	38.3	38.3	66	28.0	2	4	270	0.00	29.983 
08:45	38.6	38.6	38.6	66	28.2	1	3	270	0.00	29.990 
08:50	38.9	38.9	38.9	65	28.2	2	4	248	0.00	29.990 
08:55	39.3	39.3	39.3	65	28.5	1	4	248	0.00	29.990 
09:00	39.8	39.8	39.8	65	29.0	2	4	315	0.00	29.993 
09:05	40.1	40.1	40.1	63	28.5	2	5	248	0.00	29.993 
09:10	40.3	40.3	40.3	62	28.3	2	4	270	0.00	29.993 
09:15	40.5	40.5	40.5	61	28.1	2	6	338	0.00	29.990 
09:20	40.8	40.8	40.8	60	28.0	2	5	338	0.00	29.990 
09:25	41.2	41.2	41.2	60	28.4	2	4	315	0.00	29.990 
09:30	41.6	41.6	41.6	62	29.6	2	10	315	0.00	29.982 
09:35	41.8	41.8	41.8	58	28.1	3	7	315	0.00	29.982 
09:40	42.3	42.3	42.3	60	29.4	2	4	315	0.00	29.982 
09:45	42.6	42.6	42.6	56	28.0	3	7	270	0.00	29.979 
09:50	42.9	42.9	42.9	57	28.7	2	4	270	0.00	29.979 
09:55	43.1	43.1	43.1	54	27.6	3	7	315	0.00	29.979 
10:00	43.6	43.6	43.6	55	28.5	2	5	270	0.00	29.979 
10:05	44.5	44.5	44.5	53	28.4	2	6	338	0.00	29.979 
10:10	44.6	44.6	44.6	50	27.1	3	9	292	0.00	29.979 
10:15	44.5	44.5	44.5	52	28.0	3	7	338	0.00	29.980 
10:20	44.8	44.8	44.8	49	26.8	3	7	338	0.00	29.980 
10:25	45.2	45.2	45.2	51	28.2	3	9	315	0.00	29.980 
10:30	45.7	45.7	45.7	51	28.6	3	6	315	0.00	29.981 
10:35	45.7	43.9	45.7	48	27.1	4	11	292	0.00	29.981 
10:40	45.7	43.9	45.7	49	27.6	4	9	270	0.00	29.981 
10:45	45.8	44.0	45.8	48	27.2	4	12	315	0.00	29.981 
10:50	46.0	44.2	46.0	49	27.9	4	14	315	0.00	29.981 
10:55	46.2	44.5	46.2	49	28.1	4	11	338	0.00	29.981 
11:00	46.4	44.7	46.4	47	27.3	4	8	338	0.00	29.983 
11:05	47.1	47.1	47.1	49	28.9	3	5	338	0.00	29.983 
11:10	47.3	45.8	47.3	49	29.1	4	9	338	0.00	29.983 
11:15	47.4	47.4	47.4	49	29.2	3	6	270	0.00	29.981 
11:20	47.4	45.2	47.4	47	28.2	5	10	292	0.00	29.981 
11:25	47.6	46.1	47.6	48	28.9	4	10	270	0.00	29.981 
11:30	48.2	48.2	48.2	48	29.4	3	6	338	0.00	29.980 
11:35	48.5	48.5	48.5	50	30.7	3	6	315	0.00	29.980 
11:40	48.9	48.9	48.9	46	29.0	3	9	315	0.00	29.980 
11:45	49.2	49.2	49.2	48	30.4	3	7	292	0.00	29.981 
11:50	49.2	49.2	49.2	47	29.8	3	6	338	0.00	29.981 
11:55	49.4	49.4	49.4	45	29.0	3	9	338	0.00	29.981 
12:00	49.9	49.9	49.9	47	30.5	3	12	315	0.00	29.977 
12:05	49.8	48.6	49.8	43	28.2	4	10	338	0.00	29.977 
12:10	49.8	49.8	49.8	45	29.3	3	9	292	0.00	29.977 
12:15	49.8	49.8	49.8	43	28.2	3	9	292	0.00	29.975 
12:20	50.4	50.4	50.4	46	30.4	3	8	338	0.00	29.975 
12:25	50.7	50.7	50.7	45	30.1	3	7	338	0.00	29.975 
12:30	51.0	51.0	51.0	45	30.4	3	6	338	0.00	29.974 
12:35	51.7	51.7	51.7	42	29.4	3	7	338	0.00	29.974 
12:40	51.6	51.6	51.6	45	31.0	3	6	338	0.00	29.974 
12:45	51.9	51.9	51.9	41	28.9	4	11	292	0.00	29.972 
12:50	52.0	52.0	52.0	44	30.8	3	6	292	0.00	29.972 
12:55	52.3	52.3	52.3	38	27.5	4	7	292	0.00	29.972 
13:00	52.2	52.2	52.2	40	28.6	3	7	338	0.00	29.968 
13:05	52.8	52.8	52.8	40	29.2	3	10	270	0.00	29.968 
13:10	52.8	52.8	52.8	39	28.5	4	9	292	0.00	29.968 
13:15	52.9	52.9	52.9	38	28.0	3	7	270	0.00	29.960 
13:20	53.2	53.2	53.2	40	29.5	3	9	292	0.00	29.960 
13:25	53.8	53.8	53.8	42	31.3	3	6	270	0.00	29.960 
13:30	53.9	53.9	53.9	38	28.9	3	7	292	0.00	29.954 
13:35	54.1	54.1	54.1	39	29.7	4	10	292	0.00	29.954 
13:40	53.9	53.9	53.9	40	30.1	3	10	338	0.00	29.954 
13:45	53.8	53.8	53.8	39	29.4	3	10	338	0.00	29.953 
13:50	54.1	54.1	54.1	38	29.1	4	9	270	0.00	29.953 
13:55	54.1	54.1	54.1	39	29.7	4	7	270	0.00	29.953 
14:00	54.1	54.1	54.1	38	29.1	3	9	338	0.00	29.951 
14:05	54.5	54.5	54.5	38	29.4	4	9	270	0.00	29.951 
14:10	55.0	55.0	55.0	36	28.5	4	8	270	0.00	29.951 
14:15	55.3	55.3	55.3	36	28.8	4	8	315	0.00	29.949 
14:20	54.7	54.7	54.7	35	27.6	3	7	292	0.00	29.949 
14:25	54.8	54.8	54.8	40	30.9	3	7	292	0.00	29.949 
14:30	55.1	55.1	55.1	38	30.0	2	7	338	0.00	29.940 
14:35	54.8	54.8	54.8	36	28.4	3	9	315	0.00	29.940 
14:40	55.3	55.3	55.3	36	28.8	3	7	292	0.00	29.940 
14:45	55.1	55.1	55.1	35	27.9	2	4	338	0.00	29.937 
14:50	55.6	55.6	55.6	36	29.1	3	7	248	0.00	29.937 
14:55	55.9	55.9	55.9	35	28.7	3	10	270	0.00	29.937 
15:00	55.7	55.7	55.7	35	28.5	3	7	0	0.00	29.935 
15:05	56.5	56.5	56.5	37	30.5	2	5	292	0.00	29.935 
15:10	56.3	56.3	56.3	32	26.8	3	7	292	0.00	29.935 
15:15	56.5	56.5	56.5	33	27.7	3	6	270	0.00	29.940 
15:20	56.2	56.2	56.2	34	28.2	3	7	270	0.00	29.940 
15:25	56.2	56.2	56.2	35	28.9	3	6	292	0.00	29.940 
15:30	56.5	56.5	56.5	34	28.5	2	5	315	0.00	29.932 
15:35	56.3	56.3	56.3	34	28.3	2	5	338	0.00	29.932 
15:40	56.0	56.0	56.0	36	29.4	2	5	315	0.00	29.932 
15:45	56.2	56.2	56.2	33	27.5	2	6	338	0.00	29.926 
15:50	56.5	56.5	56.5	36	29.9	2	9	270	0.00	29.926 
15:55	56.7	56.7	56.7	32	27.2	3	10	315	0.00	29.926 
16:00	56.6	56.6	56.6	39	31.9	2	6	270	0.00	29.927 
16:05	57.0	57.0	57.0	36	30.3	2	5	270	0.00	29.927 
16:10	57.0	57.0	57.0	32	27.4	2	6	270	0.00	29.927 
16:15	57.0	57.0	57.0	34	28.9	2	6	270	0.00	29.925 
16:20	57.3	57.3	57.3	33	28.4	3	7	292	0.00	29.925 
16:25	57.3	57.3	57.3	34	29.2	2	5	292	0.00	29.925 
16:30	57.2	57.2	57.2	33	28.4	3	10	270	0.00	29.923 
16:35	57.3	57.3	57.3	32	27.7	2	5	270	0.00	29.923 
16:40	57.2	57.2	57.2	31	26.8	4	11	270	0.00	29.923 
16:45	57.3	57.3	57.3	29	25.3	3	7	270	0.00	29.924 
16:50	57.5	57.5	57.5	32	27.9	3	7	292	0.00	29.924 
16:55	57.2	57.2	57.2	31	26.8	3	7	270	0.00	29.924 
17:00	57.2	57.2	57.2	32	27.6	4	12	270	0.00	29.923 
17:05	56.7	56.7	56.7	31	26.4	5	12	270	0.00	29.923 
17:10	56.3	56.3	56.3	31	26.1	3	6	270	0.00	29.923 
17:15	56.3	56.3	56.3	31	26.1	3	6	270	0.00	29.922 
17:20	56.3	56.3	56.3	32	26.8	3	7	270	0.00	29.922 
17:25	56.3	56.3	56.3	33	27.6	3	7	270	0.00	29.922 
17:30	56.3	56.3	56.3	35	29.0	2	6	338	0.00	29.921 
17:35	56.2	56.2	56.2	33	27.5	4	7	270	0.00	29.921 
17:40	56.0	56.0	56.0	34	28.0	3	10	270	0.00	29.921 
17:45	56.0	56.0	56.0	33	27.3	2	4	270	0.00	29.921 
17:50	56.0	56.0	56.0	35	28.7	2	9	270	0.00	29.921 
17:55	55.7	55.7	55.7	33	27.0	4	10	270	0.00	29.921 
18:00	55.3	55.3	55.3	34	27.4	3	7	270	0.00	29.924 
18:05	55.1	55.1	55.1	35	27.9	2	5	270	0.00	29.924 
18:10	54.8	54.8	54.8	36	28.4	3	8	248	0.00	29.924 
18:15	54.2	54.2	54.2	35	27.2	4	9	270	0.00	29.929 
18:20	53.8	53.8	53.8	36	27.5	3	7	270	0.00	29.929 
18:25	53.5	53.5	53.5	39	29.2	4	11	270	0.00	29.929 
18:30	53.5	53.5	53.5	38	28.5	2	4	270	0.00	29.930 
18:35	53.3	53.3	53.3	37	27.7	3	7	270	0.00	29.930 
18:40	53.2	53.2	53.2	38	28.3	2	5	270	0.00	29.930 
18:45	53.1	53.1	53.1	38	28.2	3	6	270	0.00	29.922 
18:50	53.1	53.1	53.1	37	27.5	2	6	270	0.00	29.922 
18:55	52.9	52.9	52.9	37	27.3	4	8	270	0.00	29.922 
19:00	52.8	52.8	52.8	37	27.3	4	11	270	0.00	29.922 
19:05	52.8	52.8	52.8	38	27.9	2	5	270	0.00	29.922 
19:10	52.6	52.6	52.6	38	27.7	3	7	270	0.00	29.922 
19:15	52.5	52.5	52.5	37	27.0	3	9	270	0.00	29.919 
19:20	52.2	52.2	52.2	37	26.7	2	6	292	0.00	29.919 
19:25	52.0	52.0	52.0	39	27.8	3	6	292	0.00	29.919 
19:30	51.9	51.9	51.9	39	27.7	3	6	270	0.00	29.923 
19:35	51.7	51.7	51.7	39	27.6	3	6	315	0.00	29.923 
19:40	51.4	51.4	51.4	38	26.7	2	6	315	0.00	29.923 
19:45	51.4	51.4	51.4	40	27.9	2	7	248	0.00	29.922 
19:50	51.3	51.3	51.3	40	27.8	2	6	248	0.00	29.922 
19:55	51.1	51.1	51.1	40	27.6	2	5	248	0.00	29.922 
20:00	51.0	51.0	51.0	40	27.5	2	6	248	0.00	29.917 
20:05	50.7	50.7	50.7	41	27.9	2	5	270	0.00	29.917 
20:10	50.5	50.5	50.5	42	28.3	2	5	248	0.00	29.917 
20:15	50.4	50.4	50.4	41	27.6	2	5	270	0.00	29.915 
20:20	50.1	50.1	50.1	41	27.3	2	5	270	0.00	29.915 
20:25	50.1	50.1	50.1	42	27.9	2	6	270	0.00	29.915 
20:30	49.8	49.8	49.8	43	28.2	2	3	270	0.00	29.916 
20:35	49.6	49.6	49.6	44	28.6	1	3	270	0.00	29.916 
20:40	49.5	49.5	49.5	44	28.5	2	4	270	0.00	29.916 
20:45	49.4	49.4	49.4	44	28.4	1	4	270	0.00	29.917 
20:50	49.2	49.2	49.2	43	27.7	2	6	270	0.00	29.917 
20:55	49.2	49.2	49.2	44	28.2	1	4	270	0.00	29.917 
21:00	48.9	48.9	48.9	44	28.0	1	3	338	0.00	29.923 
21:05	48.8	48.8	48.8	43	27.3	1	3	338	0.00	29.923 
21:10	48.6	48.6	48.6	43	27.1	1	4	315	0.00	29.923 
21:15	48.5	48.5	48.5	42	26.5	1	3	315	0.00	29.920 
21:20	48.3	48.3	48.3	43	26.9	1	3	292	0.00	29.920 
21:25	48.3	48.3	48.3	43	26.9	1	3	292	0.00	29.920 
21:30	48.2	48.2	48.2	43	26.8	1	5	270	0.00	29.924 
21:35	48.2	48.2	48.2	43	26.8	1	3	338	0.00	29.924 
21:40	48.2	48.2	48.2	44	27.3	1	3	315	0.00	29.924 
21:45	48.0	48.0	48.0	44	27.1	1	3	315	0.00	29.926 
21:50	48.0	48.0	48.0	45	27.7	1	3	315	0.00	29.926 
21:55	47.9	47.9	47.9	45	27.6	1	4	315	0.00	29.926 
22:00	47.7	47.7	47.7	45	27.4	1	3	315	0.00	29.926 
22:05	47.7	47.7	47.7	46	27.9	0	2	270	0.00	29.926 
22:10	47.6	47.6	47.6	46	27.9	1	3	270	0.00	29.926 
22:15	47.4	47.4	47.4	46	27.7	1	3	270	0.00	29.925 
22:20	47.4	47.4	47.4	46	27.7	1	3	270	0.00	29.925 
22:25	47.3	47.3	47.3	46	27.6	1	4	270	0.00	29.925 
22:30	47.1	47.1	47.1	46	27.4	1	2	0	0.00	29.926 
22:35	47.0	47.0	47.0	47	27.8	1	4	270	0.00	29.926 
22:40	46.8	46.8	46.8	46	27.1	1	3	292	0.00	29.926 
22:45	46.7	46.7	46.7	46	27.0	0	2	292	0.00	29.926 
22:50	46.5	46.5	46.5	46	26.8	1	4	270	0.00	29.926 
22:55	46.4	46.4	46.4	47	27.3	0	1	270	0.00	29.926 
23:00	46.2	46.2	46.2	47	27.1	0	1	270	0.00	29.927 
23:05	46.2	46.2	46.2	48	27.6	0	1	270	0.00	29.927 
23:10	46.0	46.0	46.0	47	26.9	0	1	270	0.00	29.927 
23:15	45.8	45.8	45.8	47	26.7	0	2	270	0.00	29.925 
23:20	45.8	45.8	45.8	48	27.2	0	1	270	0.00	29.925 
23:25	45.7	45.7	45.7	49	27.6	0	1	270	0.00	29.925 
23:30	45.7	45.7	45.7	48	27.1	0	2	270	0.00	29.924 
23:35	45.5	45.5	45.5	49	27.5	0	1	270	0.00	29.924 
23:40	45.4	45.4	45.4	49	27.4	0	1	270	0.00	29.924 
23:45	45.2	45.2	45.2	49	27.2	0	0	---	0.00	29.924 
23:50	45.1	45.1	45.1	50	27.6	0	0	---	0.00	29.924 
23:55	44.9	44.9	44.9	50	27.4	0	1	270	0.00	29.924 

CoCoRaHS
IN-AL-39
A2 Web Hosting
Creative Commons License
GoDaddy
Look for:

loaded 2017-12-12 07:31:15 • last modified 2010-11-18 10:43:29
Privacy PolicyDisclaimer
• wx.awcolley.com is powered by PmWiki v.2002016 •
• all content (unless otherwise noted) © 2017 A W Colley